MRAR weather

Atirro Airport
Turrialba, Cartago, Costa Rica

Public forecast

Using degrees Celsius for public forecast. Weather courtesy of forecast.io.

METAR (pilot weather report)

Report is more than 2 hours old.

Closest report is Tobias Bolanos International Airport, 29.7 nm (55.0 km) WNW. Retrieved 2019/03/26 18:00 UTC (2 hours ago):

MRPV 261800Z 08018KT 9999 FEW045 26/14 A3002 NOSIG

TAF (pilot weather forecast)

Forecast is more than 6 hours old.

Closest forecast is Tobias Bolanos International Airport, 29.7 nm (55.0 km) WNW. Retrieved 2019/03/26 12:15 UTC (8 hours ago):

TAF MRPV 261100Z 2612/2712 10016KT 9999 FEW030 TX26/2617Z TN18/2710Z TEMPO 2618/2624 09018G28KT